Time;durP1;ratioP1;P1;durP2;ratioP2;P2;SDS_P1;SDS_P2;PMS_P1;PMS_P2;Temp;Humidity;BMP_temperature;BMP_pressure;BME280_temperature;BME280_humidity;BME280_pressure;Samples;Min_cycle;Max_cycle;Signal;HPM_P1;HPM_P2
2022/12/19 00:01:41;;;;;;;29.95;14.93;;;-2.50;83.10;;;;;;5133465;27;20286;-65
2022/12/19 00:04:14;;;;;;;37.38;15.13;;;-2.60;83.20;;;;;;5133725;27;20227;-66
2022/12/19 00:06:42;;;;;;;29.20;15.73;;;-2.60;83.50;;;;;;5133276;27;20183;-65
2022/12/19 00:09:10;;;;;;;31.35;16.50;;;-2.70;84.30;;;;;;5133569;27;20187;-65
2022/12/19 00:11:40;;;;;;;28.95;17.15;;;-2.60;84.90;;;;;;5133197;27;20187;-65
2022/12/19 00:14:11;;;;;;;31.10;14.30;;;-2.60;85.30;;;;;;5134025;27;20597;-65
2022/12/19 00:16:43;;;;;;;36.22;16.80;;;-2.50;85.00;;;;;;5133107;27;20190;-66
2022/12/19 00:19:14;;;;;;;32.85;15.70;;;-2.50;85.20;;;;;;5133513;27;20217;-65
2022/12/19 00:21:43;;;;;;;35.25;15.65;;;-2.40;85.30;;;;;;5133004;27;20274;-66
2022/12/19 00:24:14;;;;;;;31.17;15.25;;;-2.40;84.90;;;;;;5133724;27;20213;-65
2022/12/19 00:26:43;;;;;;;35.42;16.52;;;-2.40;84.80;;;;;;5132940;27;20188;-66
2022/12/19 00:29:15;;;;;;;31.02;15.50;;;-2.40;84.70;;;;;;5133803;27;20187;-65
2022/12/19 00:31:42;;;;;;;29.65;15.45;;;-2.30;84.80;;;;;;5133115;27;20245;-65
2022/12/19 00:34:10;;;;;;;30.67;15.35;;;-2.20;84.80;;;;;;5133176;27;20184;-66
2022/12/19 00:36:40;;;;;;;29.25;16.30;;;-2.20;84.50;;;;;;5132761;27;20278;-66
2022/12/19 00:39:09;;;;;;;31.13;15.30;;;-2.10;84.70;;;;;;5133009;27;20227;-65
2022/12/19 00:41:40;;;;;;;31.80;15.93;;;-2.10;84.90;;;;;;5132417;27;20274;-65
2022/12/19 00:44:13;;;;;;;35.75;16.95;;;-2.10;84.70;;;;;;5133569;27;20195;-65
2022/12/19 00:46:42;;;;;;;28.85;16.67;;;-2.10;84.70;;;;;;5132773;27;20179;-65
2022/12/19 00:49:10;;;;;;;38.78;18.73;;;-2.10;84.80;;;;;;5133471;27;20256;-66
2022/12/19 00:51:39;;;;;;;31.02;13.75;;;-2.00;84.90;;;;;;5132901;27;20237;-66
2022/12/19 00:54:07;;;;;;;22.42;14.75;;;-2.00;84.90;;;;;;5133372;27;20266;-66
2022/12/19 00:56:40;;;;;;;31.20;17.33;;;-2.00;84.90;;;;;;5133092;27;20229;-66
2022/12/19 00:59:07;;;;;;;34.05;19.10;;;-1.90;84.50;;;;;;5138025;27;20655;-66
2022/12/19 01:01:42;;;;;;;35.28;17.52;;;-2.00;84.00;;;;;;5136919;27;20194;-65
2022/12/19 01:04:13;;;;;;;38.78;15.73;;;-2.00;84.30;;;;;;5137416;27;20240;-65
2022/12/19 01:06:41;;;;;;;31.38;15.38;;;-1.90;84.70;;;;;;5136981;27;20194;-65
2022/12/19 01:09:12;;;;;;;33.25;15.60;;;-2.00;84.40;;;;;;5136834;27;20515;-66
2022/12/19 01:14:33;;;;;;;34.78;16.10;;;-1.90;84.50;;;;;;5136511;27;20203;-66
2022/12/19 01:17:02;;;;;;;26.75;13.52;;;-1.90;84.10;;;;;;5137139;27;20218;-66
2022/12/19 01:19:29;;;;;;;30.88;15.65;;;-1.90;84.20;;;;;;5136771;27;20183;-66
2022/12/19 01:21:56;;;;;;;33.47;15.63;;;-1.80;84.50;;;;;;5136706;27;20188;-66
2022/12/19 01:24:25;;;;;;;25.85;14.80;;;-1.80;84.60;;;;;;5136414;27;20630;-66
2022/12/19 01:26:53;;;;;;;31.67;14.13;;;-1.80;84.10;;;;;;5136666;27;20191;-66
2022/12/19 01:29:22;;;;;;;32.38;15.38;;;-1.80;84.30;;;;;;5136621;27;20702;-66
2022/12/19 01:31:50;;;;;;;29.38;15.93;;;-1.80;84.30;;;;;;5136589;27;20192;-65
2022/12/19 01:34:19;;;;;;;30.60;16.05;;;-1.80;84.40;;;;;;5136319;27;20203;-66
2022/12/19 01:36:48;;;;;;;34.08;16.83;;;-1.80;84.00;;;;;;5136549;27;20251;-67
2022/12/19 01:39:15;;;;;;;27.38;15.90;;;-1.80;84.00;;;;;;5136067;27;20219;-66
2022/12/19 01:41:45;;;;;;;26.20;15.70;;;-1.80;84.00;;;;;;5136431;27;20274;-66
2022/12/19 01:44:15;;;;;;;33.95;16.02;;;-1.80;84.30;;;;;;5136310;27;20209;-65
2022/12/19 01:46:45;;;;;;;33.10;16.05;;;-1.80;84.40;;;;;;5136393;27;20279;-66
2022/12/19 01:49:18;;;;;;;29.17;16.98;;;-1.80;84.50;;;;;;5136141;27;20225;-66
2022/12/19 01:51:53;;;;;;;34.08;16.13;;;-1.80;84.40;;;;;;5136521;27;20195;-66
2022/12/19 01:54:25;;;;;;;29.65;15.70;;;-1.80;84.30;;;;;;5136049;27;20194;-66
2022/12/19 01:56:55;;;;;;;35.97;17.15;;;-1.80;84.80;;;;;;5136288;27;20654;-66
2022/12/19 01:59:28;;;;;;;29.40;15.63;;;-1.80;84.90;;;;;;5136076;27;20221;-66
2022/12/19 02:02:04;;;;;;;37.88;18.83;;;-1.80;84.80;;;;;;5135894;27;20195;-66
2022/12/19 02:04:32;;;;;;;39.55;15.38;;;-1.80;85.20;;;;;;5136084;27;20187;-66
2022/12/19 02:07:05;;;;;;;42.38;17.42;;;-1.70;85.30;;;;;;5135606;27;20525;-66
2022/12/19 02:09:32;;;;;;;35.72;17.52;;;-1.70;85.10;;;;;;5135240;27;20271;-66
2022/12/19 02:12:00;;;;;;;32.08;16.23;;;-1.70;85.00;;;;;;5135519;27;20191;-65
2022/12/19 02:14:33;;;;;;;42.25;17.67;;;-1.70;84.90;;;;;;5135893;27;20191;-66
2022/12/19 02:17:13;;;;;;;36.22;16.10;;;-1.80;84.30;;;;;;5135836;27;20817;-65
2022/12/19 02:20:10;;;;;;;32.72;16.40;;;-1.80;84.30;;;;;;5135652;27;20215;-66
2022/12/19 02:22:51;;;;;;;29.55;16.27;;;-1.80;83.90;;;;;;5114413;28;20196;-66
2022/12/19 02:25:56;;;;;;;30.65;17.35;;;-1.90;83.40;;;;;;5117885;27;20199;-66
2022/12/19 02:28:53;;;;;;;32.05;15.35;;;-1.90;83.60;;;;;;5135588;27;20187;-66
2022/12/19 02:31:29;;;;;;;33.70;17.10;;;-1.90;83.70;;;;;;5134908;27;20183;-65
2022/12/19 02:34:03;;;;;;;30.27;15.55;;;-1.90;83.60;;;;;;5135289;27;20191;-66
2022/12/19 02:36:37;;;;;;;34.83;17.10;;;-2.00;84.10;;;;;;5135326;27;20251;-66
2022/12/19 02:39:11;;;;;;;35.90;17.10;;;-1.90;84.70;;;;;;5135120;27;20260;-66
2022/12/19 02:41:44;;;;;;;33.83;16.88;;;-1.90;84.90;;;;;;5135491;27;20187;-65
2022/12/19 02:44:16;;;;;;;27.40;15.60;;;-1.90;84.70;;;;;;5134441;27;20195;-66
2022/12/19 02:46:47;;;;;;;32.25;16.10;;;-2.00;84.30;;;;;;5134718;27;20176;-66
2022/12/19 02:49:15;;;;;;;36.90;16.92;;;-2.00;84.50;;;;;;5134570;27;20188;-66
2022/12/19 02:51:42;;;;;;;29.33;14.77;;;-2.00;84.50;;;;;;5134639;27;20180;-65
2022/12/19 02:54:10;;;;;;;32.15;16.83;;;-2.10;85.10;;;;;;5135125;27;20195;-66
2022/12/19 02:56:48;;;;;;;32.08;16.23;;;-2.00;85.10;;;;;;5134795;27;20555;-66
2022/12/19 02:59:33;;;;;;;32.67;16.58;;;-2.10;84.90;;;;;;5135063;27;20696;-66
2022/12/19 03:02:10;;;;;;;31.88;15.70;;;-2.00;86.00;;;;;;5134586;27;20179;-66
2022/12/19 03:04:48;;;;;;;40.08;17.45;;;-2.00;85.20;;;;;;5135165;27;20294;-65
2022/12/19 03:07:27;;;;;;;32.85;16.35;;;-2.10;85.20;;;;;;5134483;27;20240;-66
2022/12/19 03:10:07;;;;;;;32.22;15.38;;;-2.10;85.30;;;;;;5134970;27;20191;-66
2022/12/19 03:12:44;;;;;;;32.92;16.73;;;-2.10;85.40;;;;;;5134269;27;20661;-66
2022/12/19 03:15:12;;;;;;;33.28;16.75;;;-2.30;86.10;;;;;;5134817;27;20659;-66
2022/12/19 03:17:41;;;;;;;29.77;17.02;;;-2.30;87.10;;;;;;5134447;27;20228;-66
2022/12/19 03:20:19;;;;;;;34.85;19.08;;;-2.30;87.80;;;;;;5133753;27;20195;-66
2022/12/19 03:22:47;;;;;;;31.77;17.60;;;-2.30;88.40;;;;;;5134076;27;20194;-66
2022/12/19 03:25:14;;;;;;;37.40;17.75;;;-2.30;89.00;;;;;;5134448;27;20187;-66
2022/12/19 03:27:43;;;;;;;25.33;14.07;;;-2.30;89.60;;;;;;5133749;27;20194;-65
2022/12/19 03:30:14;;;;;;;35.08;15.80;;;-2.30;90.00;;;;;;5133708;27;20190;-66
2022/12/19 03:32:45;;;;;;;31.80;17.05;;;-2.30;90.10;;;;;;5134588;27;20187;-65
2022/12/19 03:35:18;;;;;;;34.10;17.25;;;-2.30;90.40;;;;;;5133953;27;20211;-66
2022/12/19 03:37:47;;;;;;;33.22;16.42;;;-2.30;90.40;;;;;;5134394;27;20577;-66
2022/12/19 03:40:19;;;;;;;32.53;16.40;;;-2.30;90.40;;;;;;5133715;27;20226;-66
2022/12/19 03:43:08;;;;;;;37.63;16.73;;;-2.20;90.60;;;;;;5134315;27;20588;-66
2022/12/19 03:45:47;;;;;;;36.67;17.38;;;-2.20;90.80;;;;;;5133839;27;20175;-66
2022/12/19 03:48:23;;;;;;;33.50;17.27;;;-2.20;91.10;;;;;;5134204;27;20191;-66
2022/12/19 03:51:00;;;;;;;34.67;17.33;;;-2.10;91.40;;;;;;5133976;27;20191;-66
2022/12/19 03:53:40;;;;;;;46.80;20.58;;;-2.00;90.90;;;;;;5133775;27;20188;-66
2022/12/19 03:56:15;;;;;;;33.17;16.40;;;-2.00;91.00;;;;;;5133819;27;20184;-66
2022/12/19 03:58:48;;;;;;;34.55;17.92;;;-1.90;91.00;;;;;;5133599;27;20609;-66
2022/12/19 04:01:16;;;;;;;36.25;18.13;;;-1.90;90.70;;;;;;5133751;27;20282;-67
2022/12/19 04:03:45;;;;;;;32.22;15.52;;;-1.90;91.10;;;;;;5119214;27;20590;-66
2022/12/19 04:06:14;;;;;;;27.90;14.80;;;-1.80;91.10;;;;;;5133410;27;20202;-66
2022/12/19 04:08:42;;;;;;;34.25;16.38;;;-1.80;91.10;;;;;;5134000;27;20184;-66
2022/12/19 04:11:15;;;;;;;35.75;17.38;;;-1.70;90.80;;;;;;5133587;27;20543;-65
2022/12/19 04:13:48;;;;;;;34.60;16.33;;;-1.70;91.00;;;;;;5133858;27;20191;-65
2022/12/19 04:16:22;;;;;;;39.50;15.85;;;-1.60;91.10;;;;;;5133382;27;20196;-66
2022/12/19 04:18:56;;;;;;;34.35;14.77;;;-1.50;91.00;;;;;;5133975;27;20230;-66
2022/12/19 04:21:31;;;;;;;29.17;16.20;;;-1.60;90.90;;;;;;5133233;27;20556;-65
2022/12/19 04:24:04;;;;;;;36.05;15.93;;;-1.50;91.00;;;;;;5133730;27;20236;-66
2022/12/19 04:26:32;;;;;;;30.08;15.63;;;-1.50;90.80;;;;;;5132639;27;20186;-66
2022/12/19 04:29:04;;;;;;;31.33;16.10;;;-1.50;90.80;;;;;;5132794;27;20195;-65
2022/12/19 04:31:31;;;;;;;32.25;14.85;;;-1.50;90.70;;;;;;5132706;27;20224;-66
2022/12/19 04:34:00;;;;;;;30.90;16.00;;;-1.40;90.90;;;;;;5132361;27;20186;-66
2022/12/19 04:36:27;;;;;;;29.10;18.55;;;-1.30;90.90;;;;;;5132885;27;20216;-66
2022/12/19 04:38:55;;;;;;;23.48;14.50;;;-1.30;90.80;;;;;;5132454;27;20219;-66
2022/12/19 04:41:22;;;;;;;30.23;14.82;;;-1.20;90.80;;;;;;5133346;27;20213;-66
2022/12/19 04:43:50;;;;;;;29.27;15.90;;;-1.30;90.50;;;;;;5133014;27;20191;-66
2022/12/19 04:46:17;;;;;;;28.00;14.07;;;-1.30;90.50;;;;;;5133066;27;20186;-66
2022/12/19 04:48:45;;;;;;;26.33;15.07;;;-1.20;90.70;;;;;;5133537;27;20192;-66
2022/12/19 04:51:14;;;;;;;31.23;15.80;;;-1.20;90.60;;;;;;5132967;28;20650;-66
2022/12/19 04:53:41;;;;;;;33.50;15.80;;;-1.10;90.50;;;;;;5133490;27;20191;-66
2022/12/19 04:56:12;;;;;;;29.55;16.08;;;-1.10;90.60;;;;;;5132575;28;20191;-66
2022/12/19 04:58:40;;;;;;;29.05;14.85;;;-1.00;90.50;;;;;;5133426;27;20211;-66
2022/12/19 05:01:13;;;;;;;25.80;15.10;;;-1.00;90.60;;;;;;5133289;27;20192;-66
2022/12/19 05:03:43;;;;;;;24.35;14.63;;;-1.00;90.70;;;;;;5133607;27;20203;-66
2022/12/19 05:06:13;;;;;;;28.58;15.48;;;-0.90;90.70;;;;;;5133143;27;20198;-66
2022/12/19 05:08:44;;;;;;;29.13;14.65;;;-0.90;90.60;;;;;;5133294;27;20195;-66
2022/12/19 05:11:13;;;;;;;25.13;14.05;;;-0.80;90.60;;;;;;5132849;27;20598;-66
2022/12/19 05:13:41;;;;;;;25.85;13.82;;;-0.80;90.50;;;;;;5133256;27;20187;-66
2022/12/19 05:16:10;;;;;;;26.67;15.65;;;-0.70;90.50;;;;;;5133081;27;20209;-66
2022/12/19 05:18:39;;;;;;;27.95;13.38;;;-0.70;90.50;;;;;;5133197;27;20211;-66
2022/12/19 05:21:06;;;;;;;27.83;14.52;;;-0.70;90.40;;;;;;5132741;27;20252;-66
2022/12/19 05:23:36;;;;;;;27.73;14.38;;;-0.70;90.20;;;;;;5132985;28;20188;-66
2022/12/19 05:26:12;;;;;;;33.60;14.90;;;-0.70;90.00;;;;;;5132059;28;20603;-66
2022/12/19 05:28:40;;;;;;;27.30;14.10;;;-0.70;90.10;;;;;;5133015;27;20285;-66
2022/12/19 05:31:10;;;;;;;29.65;14.73;;;-0.80;90.20;;;;;;5132914;27;20191;-66
2022/12/19 05:33:38;;;;;;;24.98;12.88;;;-0.80;90.30;;;;;;5133223;27;20188;-66
2022/12/19 05:36:12;;;;;;;25.17;15.65;;;-0.80;90.50;;;;;;5132454;27;20223;-66
2022/12/19 05:38:41;;;;;;;28.77;13.70;;;-0.80;90.60;;;;;;5133143;27;20222;-66
2022/12/19 05:41:09;;;;;;;27.67;13.77;;;-0.80;90.60;;;;;;5132822;27;20188;-66
2022/12/19 05:43:37;;;;;;;25.63;14.23;;;-0.80;90.50;;;;;;5134817;27;20192;-66
2022/12/19 05:46:05;;;;;;;25.52;14.05;;;-0.70;90.40;;;;;;5136672;27;20198;-66
2022/12/19 05:48:37;;;;;;;23.25;13.43;;;-0.70;90.30;;;;;;5136395;27;20180;-66
2022/12/19 05:51:05;;;;;;;29.27;15.43;;;-0.70;90.10;;;;;;5136833;27;20274;-66
2022/12/19 05:53:34;;;;;;;28.65;15.10;;;-0.80;90.00;;;;;;5135947;27;20184;-66
2022/12/19 05:56:08;;;;;;;28.70;13.68;;;-0.80;90.00;;;;;;5136342;27;20245;-67
2022/12/19 05:58:35;;;;;;;28.95;14.38;;;-0.80;89.90;;;;;;5135311;27;20183;-66
2022/12/19 06:01:03;;;;;;;24.15;13.80;;;-0.80;89.80;;;;;;5136461;27;20188;-66
2022/12/19 06:03:30;;;;;;;28.92;13.60;;;-0.80;89.80;;;;;;5136233;27;20575;-66
2022/12/19 06:06:01;;;;;;;24.45;13.80;;;-0.80;89.90;;;;;;5136516;27;20188;-66
2022/12/19 06:08:34;;;;;;;21.73;12.75;;;-0.80;90.00;;;;;;5135612;27;20650;-66
2022/12/19 06:11:03;;;;;;;26.25;14.73;;;-0.80;90.20;;;;;;5136280;27;20270;-67
2022/12/19 06:13:32;;;;;;;27.15;14.48;;;-0.80;90.20;;;;;;5135543;27;20199;-66
2022/12/19 06:15:59;;;;;;;29.52;14.63;;;-0.70;90.20;;;;;;5136090;27;20191;-66
2022/12/19 06:18:27;;;;;;;24.02;12.68;;;-0.70;90.10;;;;;;5135687;27;20194;-66
2022/12/19 06:20:59;;;;;;;25.13;13.45;;;-0.70;90.00;;;;;;5135944;27;20219;-66
2022/12/19 06:23:26;;;;;;;26.40;14.13;;;-0.80;90.00;;;;;;5135410;27;20191;-66
2022/12/19 06:25:57;;;;;;;25.35;15.57;;;-0.80;90.00;;;;;;5135805;27;20245;-66
2022/12/19 06:28:25;;;;;;;30.15;14.98;;;-0.80;89.90;;;;;;5135375;27;20180;-66
2022/12/19 06:30:56;;;;;;;32.42;15.13;;;-0.80;89.70;;;;;;5135211;27;20190;-66
2022/12/19 06:33:26;;;;;;;26.15;13.73;;;-0.80;89.60;;;;;;5133972;27;20180;-66
2022/12/19 06:35:59;;;;;;;26.27;16.23;;;-0.90;89.50;;;;;;5134782;27;20211;-66
2022/12/19 06:38:26;;;;;;;28.80;14.68;;;-0.90;89.60;;;;;;5135515;27;20237;-66
2022/12/19 06:43:39;;;;;;;31.48;14.35;;;-0.90;89.60;;;;;;5135366;27;20198;-65
2022/12/19 06:46:11;;;;;;;35.10;20.00;;;-1.00;89.20;;;;;;5135631;27;20184;-66
2022/12/19 06:48:38;;;;;;;54.63;26.48;;;-1.00;89.30;;;;;;5135346;27;20190;-66
2022/12/19 06:51:06;;;;;;;52.05;27.13;;;-1.00;89.60;;;;;;5135240;27;20223;-66
2022/12/19 06:53:34;;;;;;;53.42;25.95;;;-1.00;90.00;;;;;;5135442;27;20275;-66
2022/12/19 06:56:01;;;;;;;48.30;23.45;;;-0.90;90.20;;;;;;5135028;27;20188;-66
2022/12/19 06:58:28;;;;;;;49.50;22.05;;;-0.90;90.30;;;;;;5135406;27;20529;-63
2022/12/19 07:01:01;;;;;;;36.38;19.65;;;-0.90;90.30;;;;;;5135140;27;20218;-63
2022/12/19 07:03:33;;;;;;;34.60;18.25;;;-0.90;90.40;;;;;;5135097;27;20198;-64
2022/12/19 07:06:01;;;;;;;34.60;19.42;;;-0.90;90.40;;;;;;5131983;27;20194;-64
2022/12/19 07:08:28;;;;;;;36.03;18.45;;;-0.90;90.20;;;;;;5133100;27;20235;-65
2022/12/19 07:10:56;;;;;;;26.80;15.57;;;-1.00;90.40;;;;;;5131812;27;20601;-64
2022/12/19 07:13:23;;;;;;;26.30;15.32;;;-0.90;90.60;;;;;;5130176;27;20187;-64
2022/12/19 07:15:52;;;;;;;29.70;18.00;;;-1.00;90.60;;;;;;5133824;27;20180;-64
2022/12/19 07:18:20;;;;;;;37.58;18.05;;;-1.00;91.20;;;;;;5133514;27;20184;-65
2022/12/19 07:20:49;;;;;;;30.30;18.67;;;-1.10;91.30;;;;;;5133559;27;20559;-64
2022/12/19 07:23:20;;;;;;;32.80;19.73;;;-1.00;91.50;;;;;;5132917;27;20188;-64
2022/12/19 07:25:48;;;;;;;31.65;18.08;;;-1.00;91.80;;;;;;5133304;27;20664;-65
2022/12/19 07:28:16;;;;;;;31.30;17.75;;;-0.90;91.70;;;;;;5133536;27;20242;-65
2022/12/19 07:30:44;;;;;;;36.10;17.60;;;-0.80;92.00;;;;;;5133421;27;20594;-64
2022/12/19 07:33:11;;;;;;;29.98;18.30;;;-0.70;92.10;;;;;;5133604;27;20233;-64
2022/12/19 07:35:41;;;;;;;31.17;16.55;;;-0.60;92.20;;;;;;5132659;27;20693;-64
2022/12/19 07:38:10;;;;;;;30.33;16.08;;;-0.50;92.20;;;;;;5133608;27;20195;-64
2022/12/19 07:40:39;;;;;;;27.73;16.23;;;-0.50;92.00;;;;;;5133880;27;20219;-65
2022/12/19 07:43:12;;;;;;;24.75;15.15;;;-0.40;92.10;;;;;;5135429;27;20188;-66
2022/12/19 07:45:39;;;;;;;31.00;16.00;;;-0.30;92.30;;;;;;5133190;27;20195;-64
2022/12/19 07:48:07;;;;;;;28.92;16.23;;;-0.20;92.20;;;;;;5134729;27;20196;-65
2022/12/19 07:50:35;;;;;;;27.27;14.90;;;-0.10;92.30;;;;;;5132871;27;20187;-65
2022/12/19 07:53:02;;;;;;;30.13;17.48;;;0.00;92.10;;;;;;5134445;27;20187;-65
2022/12/19 07:55:30;;;;;;;27.95;13.75;;;0.00;92.00;;;;;;5134584;27;20223;-64
2022/12/19 07:57:59;;;;;;;31.88;18.08;;;0.10;92.20;;;;;;5134376;27;20222;-64
2022/12/19 08:00:25;;;;;;;28.00;15.23;;;0.20;92.20;;;;;;5134417;27;20260;-64
2022/12/19 08:02:52;;;;;;;24.95;15.77;;;0.30;92.40;;;;;;5134469;27;20219;-64
2022/12/19 08:05:19;;;;;;;25.85;14.68;;;0.40;92.50;;;;;;5133762;27;20224;-64
2022/12/19 08:07:46;;;;;;;27.80;14.50;;;0.50;92.60;;;;;;5134292;27;20614;-64
2022/12/19 08:10:14;;;;;;;25.05;14.60;;;0.60;92.50;;;;;;5134573;27;20585;-64
2022/12/19 08:12:43;;;;;;;26.73;17.30;;;0.60;92.20;;;;;;5130333;27;20635;-64
2022/12/19 08:15:10;;;;;;;32.15;19.27;;;0.70;91.90;;;;;;5113476;28;20189;-64
2022/12/19 08:17:38;;;;;;;31.05;19.58;;;0.70;91.70;;;;;;5113632;28;20228;-64
2022/12/19 08:20:07;;;;;;;26.23;16.60;;;0.70;91.60;;;;;;5113281;28;20216;-64
2022/12/19 08:22:34;;;;;;;27.83;18.15;;;0.80;91.90;;;;;;5113482;28;20192;-64
2022/12/19 08:25:01;;;;;;;34.67;18.50;;;0.80;91.80;;;;;;5113383;28;20220;-65
2022/12/19 08:27:28;;;;;;;26.67;16.60;;;0.90;92.10;;;;;;5113359;28;20199;-64
2022/12/19 08:29:56;;;;;;;30.08;16.25;;;0.90;92.10;;;;;;5130501;27;20187;-64
2022/12/19 08:32:23;;;;;;;31.55;16.45;;;1.00;92.30;;;;;;5133789;27;20187;-64
2022/12/19 08:34:50;;;;;;;20.77;14.02;;;1.10;92.60;;;;;;5133468;27;20255;-65
2022/12/19 08:37:17;;;;;;;20.92;13.60;;;1.20;92.70;;;;;;5133807;27;20191;-65
2022/12/19 08:39:46;;;;;;;26.48;15.00;;;1.40;92.60;;;;;;5133873;28;20215;-66
2022/12/19 08:42:13;;;;;;;25.63;13.40;;;1.50;92.60;;;;;;5133455;28;20290;-65
2022/12/19 08:44:40;;;;;;;19.83;11.90;;;1.60;92.60;;;;;;5133861;27;20256;-64
2022/12/19 08:47:09;;;;;;;17.00;11.57;;;1.70;92.50;;;;;;5133480;28;20636;-64
2022/12/19 08:49:36;;;;;;;17.38;11.57;;;1.80;92.20;;;;;;5129903;27;20195;-64
2022/12/19 08:52:03;;;;;;;21.73;13.38;;;1.90;92.10;;;;;;5129814;28;20227;-64
2022/12/19 08:54:30;;;;;;;19.75;14.15;;;2.00;91.90;;;;;;5131613;27;20681;-64
2022/12/19 08:56:57;;;;;;;23.33;15.02;;;2.00;91.50;;;;;;5130671;27;20191;-65
2022/12/19 08:59:24;;;;;;;20.55;14.65;;;2.00;91.40;;;;;;5131548;27;20274;-65
2022/12/19 09:01:51;;;;;;;24.13;14.05;;;2.10;91.70;;;;;;5131883;27;20537;-64
2022/12/19 09:04:19;;;;;;;24.50;13.75;;;2.20;91.80;;;;;;5131541;27;20240;-65
2022/12/19 09:06:46;;;;;;;24.67;15.00;;;2.20;91.70;;;;;;5131668;27;20579;-65
2022/12/19 09:09:13;;;;;;;19.63;11.50;;;2.30;91.70;;;;;;5131245;27;20231;-65
2022/12/19 09:11:40;;;;;;;16.83;11.30;;;2.30;91.70;;;;;;5131434;27;20252;-64
2022/12/19 09:14:07;;;;;;;20.63;12.57;;;2.30;91.70;;;;;;5131744;28;20203;-64
2022/12/19 09:16:34;;;;;;;16.33;11.82;;;2.40;91.70;;;;;;5131483;27;20192;-66
2022/12/19 09:19:01;;;;;;;18.90;12.52;;;2.50;91.70;;;;;;5134353;27;20266;-64
2022/12/19 09:21:30;;;;;;;16.35;12.07;;;2.50;91.80;;;;;;5135391;27;20234;-65
2022/12/19 09:23:58;;;;;;;19.90;11.18;;;2.60;91.70;;;;;;5135352;27;20225;-65
2022/12/19 09:26:27;;;;;;;16.23;11.10;;;2.50;91.60;;;;;;5134209;27;20183;-65
2022/12/19 09:28:54;;;;;;;26.38;14.57;;;2.50;91.60;;;;;;5135550;27;20199;-64
2022/12/19 09:31:23;;;;;;;19.67;11.90;;;2.40;92.10;;;;;;5133278;27;20195;-65
2022/12/19 09:33:51;;;;;;;20.42;13.35;;;2.30;92.50;;;;;;5135444;27;20195;-65
2022/12/19 09:36:20;;;;;;;25.33;13.95;;;2.30;93.00;;;;;;5134719;27;20223;-64
2022/12/19 09:38:49;;;;;;;22.52;14.40;;;2.20;93.40;;;;;;5134984;27;20586;-66
2022/12/19 09:41:38;;;;;;;19.98;12.85;;;2.30;93.60;;;;;;5135165;27;20413;-65
2022/12/19 09:44:14;;;;;;;20.08;12.02;;;2.40;93.70;;;;;;5128460;27;20222;-64
2022/12/19 09:46:49;;;;;;;21.50;12.07;;;2.60;93.80;;;;;;5135119;27;20199;-65
2022/12/19 09:49:20;;;;;;;19.42;12.10;;;2.80;93.80;;;;;;5134547;27;20255;-64
2022/12/19 09:51:53;;;;;;;18.40;11.70;;;3.00;93.40;;;;;;5134509;27;20595;-65
2022/12/19 09:54:27;;;;;;;21.58;13.82;;;3.20;93.30;;;;;;5131784;27;20191;-65
2022/12/19 09:57:00;;;;;;;24.40;13.75;;;3.40;93.10;;;;;;5131089;27;20267;-65
2022/12/19 09:59:31;;;;;;;21.45;14.80;;;3.70;92.90;;;;;;5133147;27;20553;-65
2022/12/19 10:02:04;;;;;;;21.77;13.15;;;3.90;92.60;;;;;;5131749;27;20212;-65
2022/12/19 10:04:35;;;;;;;20.75;12.73;;;4.10;92.10;;;;;;5134891;27;20211;-65
2022/12/19 10:07:02;;;;;;;16.20;11.40;;;4.30;91.70;;;;;;5134942;27;20238;-65
2022/12/19 10:09:35;;;;;;;22.73;13.93;;;4.40;91.40;;;;;;5134606;27;20303;-65
2022/12/19 10:12:26;;;;;;;27.15;17.10;;;4.60;90.50;;;;;;5131718;27;20235;-65
2022/12/19 10:15:01;;;;;;;23.40;15.27;;;4.80;89.20;;;;;;5134409;27;20192;-66
2022/12/19 10:17:36;;;;;;;24.23;16.48;;;5.10;88.90;;;;;;5130941;27;20214;-65
2022/12/19 10:20:23;;;;;;;22.55;16.98;;;5.40;87.30;;;;;;5130716;27;20285;-65
2022/12/19 10:23:00;;;;;;;24.05;17.45;;;5.50;85.60;;;;;;5134202;27;20203;-65
2022/12/19 10:25:44;;;;;;;27.70;18.20;;;5.80;86.30;;;;;;5130582;27;20247;-65
2022/12/19 10:28:25;;;;;;;18.88;15.00;;;6.00;85.00;;;;;;5132959;27;20231;-65
2022/12/19 10:31:01;;;;;;;22.30;14.63;;;6.30;83.90;;;;;;5134325;27;20199;-66
2022/12/19 10:33:35;;;;;;;19.85;15.32;;;6.50;80.10;;;;;;5131852;27;20202;-66
2022/12/19 10:36:04;;;;;;;20.05;13.70;;;6.60;78.40;;;;;;5132094;27;20254;-66
2022/12/19 10:38:35;;;;;;;18.45;13.23;;;6.60;78.20;;;;;;5131385;27;20188;-65
2022/12/19 10:41:15;;;;;;;20.30;12.00;;;6.70;79.90;;;;;;5131926;27;20306;-65
2022/12/19 10:43:51;;;;;;;15.10;10.73;;;7.00;81.40;;;;;;5132909;27;20187;-66
2022/12/19 10:46:23;;;;;;;21.15;13.35;;;7.30;80.90;;;;;;5131937;27;20223;-65
2022/12/19 10:48:52;;;;;;;22.30;17.48;;;7.40;80.50;;;;;;5132186;27;20198;-66
2022/12/19 10:51:23;;;;;;;24.92;18.42;;;7.60;79.90;;;;;;5133845;27;20279;-66
2022/12/19 10:53:55;;;;;;;21.38;14.70;;;7.90;79.00;;;;;;5132404;27;20591;-66
2022/12/19 10:56:26;;;;;;;24.65;18.33;;;8.10;77.90;;;;;;5132051;27;20196;-66
2022/12/19 10:58:56;;;;;;;23.65;16.35;;;8.30;77.40;;;;;;5133491;27;20245;-66
2022/12/19 11:01:27;;;;;;;20.08;15.45;;;8.70;77.20;;;;;;5133560;27;20679;-66
2022/12/19 11:04:14;;;;;;;22.67;15.77;;;9.10;74.90;;;;;;5133638;27;20189;-66
2022/12/19 11:06:48;;;;;;;20.00;14.05;;;9.20;69.80;;;;;;5132616;27;20202;-66
2022/12/19 11:09:29;;;;;;;19.45;13.32;;;9.40;70.80;;;;;;5132765;27;20193;-66
2022/12/19 11:12:00;;;;;;;18.42;13.20;;;9.50;70.30;;;;;;5132013;27;20228;-66
2022/12/19 11:14:30;;;;;;;37.97;22.55;;;9.30;69.20;;;;;;5133664;27;20198;-66
2022/12/19 11:16:57;;;;;;;27.27;17.42;;;9.50;71.20;;;;;;5132256;27;20193;-66
2022/12/19 11:19:33;;;;;;;16.30;12.52;;;9.60;71.00;;;;;;5133023;27;20193;-66
2022/12/19 11:22:16;;;;;;;16.70;12.23;;;9.70;69.60;;;;;;5132289;27;20221;-66
2022/12/19 11:24:52;;;;;;;14.27;9.70;;;9.60;66.90;;;;;;5132130;27;20190;-67
2022/12/19 11:27:47;;;;;;;16.73;10.80;;;9.50;69.40;;;;;;5129318;27;20227;-66
2022/12/19 11:30:21;;;;;;;11.45;9.02;;;9.30;68.20;;;;;;5130048;27;20200;-66
2022/12/19 11:33:09;;;;;;;10.80;8.43;;;9.10;68.10;;;;;;5130693;27;20197;-66
2022/12/19 11:35:49;;;;;;;9.30;8.30;;;8.80;68.40;;;;;;5132570;27;20344;-66
2022/12/19 11:41:45;;;;;;;8.00;6.25;;;8.30;70.30;;;;;;5131446;27;20228;-66
2022/12/19 11:44:54;;;;;;;8.43;7.20;;;8.10;70.70;;;;;;5131540;27;20274;-66
2022/12/19 11:47:36;;;;;;;8.20;6.05;;;7.80;72.80;;;;;;5131368;27;20288;-66
2022/12/19 11:50:22;;;;;;;10.23;7.25;;;7.70;73.70;;;;;;5134485;27;20649;-66
2022/12/19 11:52:56;;;;;;;10.43;7.18;;;7.60;74.40;;;;;;5134584;27;20597;-66
2022/12/19 11:55:26;;;;;;;11.95;8.20;;;7.70;75.40;;;;;;5134498;27;20193;-66
2022/12/19 11:57:54;;;;;;;11.82;10.23;;;7.70;75.00;;;;;;5134355;27;20203;-66
2022/12/19 12:00:24;;;;;;;11.93;9.85;;;7.60;74.80;;;;;;5134175;27;20230;-67
2022/12/19 12:03:21;;;;;;;16.48;13.02;;;7.70;75.80;;;;;;5134192;27;20196;-66
2022/12/19 12:05:49;;;;;;;23.45;17.38;;;7.70;76.20;;;;;;5134610;27;20639;-66
2022/12/19 12:08:48;;;;;;;18.92;13.55;;;7.70;76.20;;;;;;5133129;27;20584;-66
2022/12/19 12:11:25;;;;;;;13.38;11.13;;;7.70;75.80;;;;;;5125657;27;20196;-66
2022/12/19 12:14:18;;;;;;;13.13;9.38;;;7.60;75.90;;;;;;5117985;27;20180;-66
2022/12/19 12:17:09;;;;;;;11.68;10.13;;;7.50;76.40;;;;;;5130004;27;20242;-66
2022/12/19 12:19:55;;;;;;;13.23;9.73;;;7.50;76.20;;;;;;5133842;27;20236;-66
2022/12/19 12:22:42;;;;;;;13.90;11.27;;;7.40;76.80;;;;;;5132304;27;20199;-66
2022/12/19 12:25:24;;;;;;;10.57;8.63;;;7.40;76.60;;;;;;5129869;27;20649;-66
2022/12/19 12:28:01;;;;;;;11.48;7.57;;;7.30;76.80;;;;;;5112046;28;20233;-66
2022/12/19 12:30:34;;;;;;;12.38;9.32;;;7.20;77.00;;;;;;5112456;28;20253;-67
2022/12/19 12:33:14;;;;;;;18.50;9.63;;;7.10;77.30;;;;;;5119173;27;20488;-66
2022/12/19 12:35:46;;;;;;;12.77;9.07;;;7.00;78.40;;;;;;5132690;27;20222;-65
2022/12/19 12:38:32;;;;;;;11.85;9.00;;;7.10;79.20;;;;;;5133410;27;20206;-66
2022/12/19 12:41:18;;;;;;;13.13;10.02;;;7.20;79.70;;;;;;5132574;27;20207;-65
2022/12/19 12:44:00;;;;;;;11.88;9.73;;;7.30;79.80;;;;;;5132859;27;20194;-66
2022/12/19 12:46:34;;;;;;;10.25;9.13;;;7.40;79.00;;;;;;5132586;27;20683;-66
2022/12/19 12:49:04;;;;;;;11.27;10.02;;;7.40;78.40;;;;;;5133089;27;20223;-66
2022/12/19 12:51:33;;;;;;;14.65;12.13;;;7.30;78.10;;;;;;5133057;27;20179;-66
2022/12/19 12:54:06;;;;;;;18.95;14.65;;;7.30;78.50;;;;;;5137344;27;20578;-66
2022/12/19 12:56:34;;;;;;;13.90;10.18;;;7.30;78.50;;;;;;5136679;27;20195;-66
2022/12/19 12:59:17;;;;;;;16.25;11.90;;;7.30;78.70;;;;;;5137072;27;20194;-66
2022/12/19 13:01:50;;;;;;;13.75;11.20;;;7.20;78.50;;;;;;5132741;27;20222;-67
2022/12/19 13:04:28;;;;;;;16.45;11.40;;;7.00;78.40;;;;;;5136810;27;20275;-66